Jump to content


AMERICAN AIRLINES FLIGHT AA844 FLOWN ON 04-10-2018 BY CAPTAIN JIM BOERMAN

Pilot StatsCaptain Jim Boerman (LDP136) • 4,870.7 total hours • 1,472 total flights [View Logbook]
FLIGHT DETAILS
StatusReceived and approved on 2018-04-10 at 17:04:39
Origin AirportSchiphol (EHAM) • Amsterdam, Netherlands (-11 feet MSL)
Filed Flight PlanFLIGHT PLANNER OFFLINE
Destination AirportDallas-Ft Worth Intl (KDFW) • Dallas-Ft Worth, Texas, United States (607 feet MSL)
Alternate AirportNone Filed
AirlineAmerican Airlines
AircraftBoeing 777-300ER (77W / B777-300ER)
FS Aircraft UsedPMDG 777-323ER American Airlines
Cruising AltitudeFL360
Distance Flown4,266 nautical miles
Passengers Onboard279 passengers (72.28% full)
DEPARTURE DETAILS
Time Out15:19:14
Taxi Data559,939 lbs total with 164,784 lbs of fuel onboard
Takeoff Data15:37:08 (18 minutes after leaving gate/ramp) • 557,663 lbs total • 7° pitch at 192 knots
Departure METAREHAM 101225Z 13008KT 100V160 CAVOK 19/10 Q1004 NOSIG
ARRIVAL DETAILS
Landing Data18:11:13 • 419,232 lbs total • 5° pitch doing 121 knots at a rate of -242.22 feet/minute with 22,989 lbs of fuel onboard
Time In18:24:16 (13 minutes after landing)
Ramp Weight418,144 lbs total
Total Fuel Used141,795 lbs
Total Block Time08:02:57 (8 hours) while 31 minutes were spent on the ground
Arrival METARKDFW 102053Z 01005KT 10SM SCT300 22/M01 A3025 RMK AO2 SLP239 T02171006 58033
MISCELLANEOUS DETAILS
LiveDISPATCH Version4.8.3.1
FS Version
FSUIPC Version5.12
OS VersionWindows 7 32-bit
Screen Resolution1920 x 1080
Pilot's CommentsNo Comments Reported
FLIGHT MAP